sensor_id;sensor_type;location;lat;lon;timestamp;temperature;humidity
8595;DHT22;4335;48.860;9.198;2022-12-18T00:01:21;-6.60;99.90
8595;DHT22;4335;48.860;9.198;2022-12-18T00:03:49;-6.60;99.90
8595;DHT22;4335;48.860;9.198;2022-12-18T00:06:16;-6.60;99.90
8595;DHT22;4335;48.860;9.198;2022-12-18T00:08:46;-6.70;99.90
8595;DHT22;4335;48.860;9.198;2022-12-18T00:11:17;-6.70;99.90
8595;DHT22;4335;48.860;9.198;2022-12-18T00:13:45;-6.70;99.90
8595;DHT22;4335;48.860;9.198;2022-12-18T00:16:14;-6.70;99.90
8595;DHT22;4335;48.860;9.198;2022-12-18T00:18:41;-6.70;99.90
8595;DHT22;4335;48.860;9.198;2022-12-18T00:21:27;-6.70;99.90
8595;DHT22;4335;48.860;9.198;2022-12-18T00:23:54;-6.70;99.90
8595;DHT22;4335;48.860;9.198;2022-12-18T00:26:25;-6.70;99.90
8595;DHT22;4335;48.860;9.198;2022-12-18T00:28:53;-6.80;99.90
8595;DHT22;4335;48.860;9.198;2022-12-18T00:31:22;-6.80;99.90
8595;DHT22;4335;48.860;9.198;2022-12-18T00:33:50;-6.80;99.90
8595;DHT22;4335;48.860;9.198;2022-12-18T00:36:19;-6.80;99.90
8595;DHT22;4335;48.860;9.198;2022-12-18T00:38:48;-6.80;99.90
8595;DHT22;4335;48.860;9.198;2022-12-18T00:41:18;-6.90;99.90
8595;DHT22;4335;48.860;9.198;2022-12-18T00:44:01;-6.90;99.90
8595;DHT22;4335;48.860;9.198;2022-12-18T00:46:28;-7.00;99.90
8595;DHT22;4335;48.860;9.198;2022-12-18T00:48:56;-6.90;99.90
8595;DHT22;4335;48.860;9.198;2022-12-18T00:51:24;-7.00;99.90
8595;DHT22;4335;48.860;9.198;2022-12-18T00:53:52;-7.00;99.90
8595;DHT22;4335;48.860;9.198;2022-12-18T00:56:20;-7.00;99.90
8595;DHT22;4335;48.860;9.198;2022-12-18T00:58:50;-7.00;99.90
8595;DHT22;4335;48.860;9.198;2022-12-18T01:01:19;-7.00;99.90
8595;DHT22;4335;48.860;9.198;2022-12-18T01:03:47;-7.00;99.90
8595;DHT22;4335;48.860;9.198;2022-12-18T01:06:15;-7.10;99.90
8595;DHT22;4335;48.860;9.198;2022-12-18T01:08:43;-7.10;99.90
8595;DHT22;4335;48.860;9.198;2022-12-18T01:11:13;-7.10;99.90
8595;DHT22;4335;48.860;9.198;2022-12-18T01:13:41;-7.10;99.90
8595;DHT22;4335;48.860;9.198;2022-12-18T01:16:11;-7.20;99.90
8595;DHT22;4335;48.860;9.198;2022-12-18T01:18:40;-7.10;99.90
8595;DHT22;4335;48.860;9.198;2022-12-18T01:21:09;-7.20;99.90
8595;DHT22;4335;48.860;9.198;2022-12-18T01:23:37;-7.20;99.90
8595;DHT22;4335;48.860;9.198;2022-12-18T01:26:09;-7.20;99.90
8595;DHT22;4335;48.860;9.198;2022-12-18T01:28:37;-7.20;99.90
8595;DHT22;4335;48.860;9.198;2022-12-18T01:31:22;-7.20;99.90
8595;DHT22;4335;48.860;9.198;2022-12-18T01:33:52;-7.30;99.90
8595;DHT22;4335;48.860;9.198;2022-12-18T01:36:24;-7.30;99.90
8595;DHT22;4335;48.860;9.198;2022-12-18T01:38:52;-7.30;99.90
8595;DHT22;4335;48.860;9.198;2022-12-18T01:41:21;-7.40;99.90
8595;DHT22;4335;48.860;9.198;2022-12-18T01:43:51;-7.30;99.90
8595;DHT22;4335;48.860;9.198;2022-12-18T01:46:21;-7.30;99.90
8595;DHT22;4335;48.860;9.198;2022-12-18T01:48:55;-7.40;99.90
8595;DHT22;4335;48.860;9.198;2022-12-18T01:51:23;-7.30;99.90
8595;DHT22;4335;48.860;9.198;2022-12-18T01:53:51;-7.40;99.90
8595;DHT22;4335;48.860;9.198;2022-12-18T01:56:20;-7.30;99.90
8595;DHT22;4335;48.860;9.198;2022-12-18T01:58:55;-7.30;99.90
8595;DHT22;4335;48.860;9.198;2022-12-18T02:01:23;-7.30;99.90
8595;DHT22;4335;48.860;9.198;2022-12-18T02:03:53;-7.30;99.90
8595;DHT22;4335;48.860;9.198;2022-12-18T02:06:23;-7.30;99.90
8595;DHT22;4335;48.860;9.198;2022-12-18T02:09:05;-7.30;99.90
8595;DHT22;4335;48.860;9.198;2022-12-18T02:11:44;-7.30;99.90
8595;DHT22;4335;48.860;9.198;2022-12-18T02:14:26;-7.30;99.90
8595;DHT22;4335;48.860;9.198;2022-12-18T02:17:01;-7.30;99.90
8595;DHT22;4335;48.860;9.198;2022-12-18T02:19:47;-7.20;99.90
8595;DHT22;4335;48.860;9.198;2022-12-18T02:22:37;-7.20;99.90
8595;DHT22;4335;48.860;9.198;2022-12-18T02:25:22;-7.20;99.90
8595;DHT22;4335;48.860;9.198;2022-12-18T02:27:58;-7.30;99.90
8595;DHT22;4335;48.860;9.198;2022-12-18T02:30:34;-7.30;99.90
8595;DHT22;4335;48.860;9.198;2022-12-18T02:33:09;-7.30;99.90
8595;DHT22;4335;48.860;9.198;2022-12-18T02:35:39;-7.30;99.90
8595;DHT22;4335;48.860;9.198;2022-12-18T02:38:07;-7.30;99.90
8595;DHT22;4335;48.860;9.198;2022-12-18T02:40:35;-7.20;99.90
8595;DHT22;4335;48.860;9.198;2022-12-18T02:43:09;-7.20;99.90
8595;DHT22;4335;48.860;9.198;2022-12-18T02:45:46;-7.20;99.90
8595;DHT22;4335;48.860;9.198;2022-12-18T02:48:18;-7.20;99.90
8595;DHT22;4335;48.860;9.198;2022-12-18T02:50:58;-7.20;99.90
8595;DHT22;4335;48.860;9.198;2022-12-18T02:53:32;-7.10;99.90
8595;DHT22;4335;48.860;9.198;2022-12-18T02:56:05;-7.10;99.90
8595;DHT22;4335;48.860;9.198;2022-12-18T02:58:40;-7.10;99.90
8595;DHT22;4335;48.860;9.198;2022-12-18T03:01:15;-7.10;99.90
8595;DHT22;4335;48.860;9.198;2022-12-18T03:03:48;-7.00;99.90
8595;DHT22;4335;48.860;9.198;2022-12-18T03:06:23;-7.10;99.90
8595;DHT22;4335;48.860;9.198;2022-12-18T03:08:56;-7.00;99.90
8595;DHT22;4335;48.860;9.198;2022-12-18T03:11:26;-7.00;99.90
8595;DHT22;4335;48.860;9.198;2022-12-18T03:14:14;-7.00;99.90
8595;DHT22;4335;48.860;9.198;2022-12-18T03:16:44;-7.00;99.90
8595;DHT22;4335;48.860;9.198;2022-12-18T03:19:15;-7.00;99.90
8595;DHT22;4335;48.860;9.198;2022-12-18T03:21:49;-7.10;99.90
8595;DHT22;4335;48.860;9.198;2022-12-18T03:24:17;-7.00;99.90
8595;DHT22;4335;48.860;9.198;2022-12-18T03:26:47;-7.00;99.90
8595;DHT22;4335;48.860;9.198;2022-12-18T03:29:27;-7.00;99.90
8595;DHT22;4335;48.860;9.198;2022-12-18T03:32:03;-7.00;99.90
8595;DHT22;4335;48.860;9.198;2022-12-18T03:34:47;-7.00;99.90
8595;DHT22;4335;48.860;9.198;2022-12-18T03:37:19;-7.00;99.90
8595;DHT22;4335;48.860;9.198;2022-12-18T03:39:46;-7.00;99.90
8595;DHT22;4335;48.860;9.198;2022-12-18T03:42:19;-7.00;99.90
8595;DHT22;4335;48.860;9.198;2022-12-18T03:44:57;-7.10;99.90
8595;DHT22;4335;48.860;9.198;2022-12-18T03:47:29;-7.10;99.90
8595;DHT22;4335;48.860;9.198;2022-12-18T03:50:10;-7.00;99.90
8595;DHT22;4335;48.860;9.198;2022-12-18T03:52:41;-7.10;99.90
8595;DHT22;4335;48.860;9.198;2022-12-18T03:55:13;-7.10;99.90
8595;DHT22;4335;48.860;9.198;2022-12-18T03:57:47;-7.10;99.90
8595;DHT22;4335;48.860;9.198;2022-12-18T04:00:27;-7.10;99.90
8595;DHT22;4335;48.860;9.198;2022-12-18T04:03:03;-7.10;99.90
8595;DHT22;4335;48.860;9.198;2022-12-18T04:05:32;-7.10;99.90
8595;DHT22;4335;48.860;9.198;2022-12-18T04:08:06;-7.10;99.90
8595;DHT22;4335;48.860;9.198;2022-12-18T04:10:34;-7.10;99.90
8595;DHT22;4335;48.860;9.198;2022-12-18T04:13:01;-7.10;99.90
8595;DHT22;4335;48.860;9.198;2022-12-18T04:15:35;-7.10;99.90
8595;DHT22;4335;48.860;9.198;2022-12-18T04:18:03;-7.10;99.90
8595;DHT22;4335;48.860;9.198;2022-12-18T04:20:31;-7.10;99.90
8595;DHT22;4335;48.860;9.198;2022-12-18T04:22:59;-7.20;99.90
8595;DHT22;4335;48.860;9.198;2022-12-18T04:25:26;-7.30;99.90
8595;DHT22;4335;48.860;9.198;2022-12-18T04:27:59;-7.20;99.90
8595;DHT22;4335;48.860;9.198;2022-12-18T04:30:27;-7.20;99.90
8595;DHT22;4335;48.860;9.198;2022-12-18T04:32:59;-7.20;99.90
8595;DHT22;4335;48.860;9.198;2022-12-18T04:35:26;-7.20;99.90
8595;DHT22;4335;48.860;9.198;2022-12-18T04:37:53;-7.30;99.90
8595;DHT22;4335;48.860;9.198;2022-12-18T04:40:21;-7.20;99.90
8595;DHT22;4335;48.860;9.198;2022-12-18T04:42:51;-7.20;99.90
8595;DHT22;4335;48.860;9.198;2022-12-18T04:45:19;-7.30;99.90
8595;DHT22;4335;48.860;9.198;2022-12-18T04:47:46;-7.30;99.90
8595;DHT22;4335;48.860;9.198;2022-12-18T04:50:16;-7.20;99.90
8595;DHT22;4335;48.860;9.198;2022-12-18T04:52:46;-7.30;99.90
8595;DHT22;4335;48.860;9.198;2022-12-18T04:55:16;-7.30;99.90
8595;DHT22;4335;48.860;9.198;2022-12-18T04:57:44;-7.40;99.90
8595;DHT22;4335;48.860;9.198;2022-12-18T05:00:12;-7.30;99.90
8595;DHT22;4335;48.860;9.198;2022-12-18T05:02:40;-7.40;99.90
8595;DHT22;4335;48.860;9.198;2022-12-18T05:05:08;-7.40;99.90
8595;DHT22;4335;48.860;9.198;2022-12-18T05:07:37;-7.50;99.90
8595;DHT22;4335;48.860;9.198;2022-12-18T05:10:06;-7.50;99.90
8595;DHT22;4335;48.860;9.198;2022-12-18T05:12:33;-7.50;99.90
8595;DHT22;4335;48.860;9.198;2022-12-18T05:15:20;-7.50;99.90
8595;DHT22;4335;48.860;9.198;2022-12-18T05:17:51;-7.50;99.90
8595;DHT22;4335;48.860;9.198;2022-12-18T05:20:22;-7.50;99.90
8595;DHT22;4335;48.860;9.198;2022-12-18T05:22:51;-7.60;99.90
8595;DHT22;4335;48.860;9.198;2022-12-18T05:25:19;-7.50;99.90
8595;DHT22;4335;48.860;9.198;2022-12-18T05:27:47;-7.50;99.90
8595;DHT22;4335;48.860;9.198;2022-12-18T05:30:17;-7.60;99.90
8595;DHT22;4335;48.860;9.198;2022-12-18T05:32:49;-7.60;99.90
8595;DHT22;4335;48.860;9.198;2022-12-18T05:35:16;-7.60;99.90
8595;DHT22;4335;48.860;9.198;2022-12-18T05:37:49;-7.70;99.90
8595;DHT22;4335;48.860;9.198;2022-12-18T05:40:20;-7.70;99.90
8595;DHT22;4335;48.860;9.198;2022-12-18T05:42:47;-7.70;99.90
8595;DHT22;4335;48.860;9.198;2022-12-18T05:45:15;-7.70;99.90
8595;DHT22;4335;48.860;9.198;2022-12-18T05:47:42;-7.70;99.90
8595;DHT22;4335;48.860;9.198;2022-12-18T05:50:18;-7.80;99.90
8595;DHT22;4335;48.860;9.198;2022-12-18T05:52:45;-7.80;99.90
8595;DHT22;4335;48.860;9.198;2022-12-18T05:55:20;-7.80;99.90
8595;DHT22;4335;48.860;9.198;2022-12-18T05:57:47;-7.80;99.90
8595;DHT22;4335;48.860;9.198;2022-12-18T06:00:18;-7.80;99.90
8595;DHT22;4335;48.860;9.198;2022-12-18T06:02:47;-7.90;99.90
8595;DHT22;4335;48.860;9.198;2022-12-18T06:05:20;-7.90;99.90
8595;DHT22;4335;48.860;9.198;2022-12-18T06:07:51;-8.00;99.90
8595;DHT22;4335;48.860;9.198;2022-12-18T06:10:20;-7.90;99.90
8595;DHT22;4335;48.860;9.198;2022-12-18T06:12:47;-7.80;99.90
8595;DHT22;4335;48.860;9.198;2022-12-18T06:15:15;-7.50;99.90
8595;DHT22;4335;48.860;9.198;2022-12-18T06:17:48;-7.30;99.90
8595;DHT22;4335;48.860;9.198;2022-12-18T06:20:16;-7.20;99.90
8595;DHT22;4335;48.860;9.198;2022-12-18T06:22:43;-7.00;99.90
8595;DHT22;4335;48.860;9.198;2022-12-18T06:25:17;-6.90;99.90
8595;DHT22;4335;48.860;9.198;2022-12-18T06:27:47;-6.70;99.90
8595;DHT22;4335;48.860;9.198;2022-12-18T06:30:17;-6.70;99.90
8595;DHT22;4335;48.860;9.198;2022-12-18T06:32:57;-6.70;99.90
8595;DHT22;4335;48.860;9.198;2022-12-18T06:35:24;-6.80;99.90
8595;DHT22;4335;48.860;9.198;2022-12-18T06:37:52;-7.00;99.90
8595;DHT22;4335;48.860;9.198;2022-12-18T06:40:19;-7.10;99.90
8595;DHT22;4335;48.860;9.198;2022-12-18T06:42:48;-7.30;99.90
8595;DHT22;4335;48.860;9.198;2022-12-18T06:45:16;-7.50;99.90
8595;DHT22;4335;48.860;9.198;2022-12-18T06:47:43;-7.50;99.90
8595;DHT22;4335;48.860;9.198;2022-12-18T06:50:11;-7.60;99.90
8595;DHT22;4335;48.860;9.198;2022-12-18T06:52:39;-7.70;99.90
8595;DHT22;4335;48.860;9.198;2022-12-18T06:55:07;-7.70;99.90
8595;DHT22;4335;48.860;9.198;2022-12-18T06:57:35;-7.80;99.90
8595;DHT22;4335;48.860;9.198;2022-12-18T07:00:06;-7.90;99.90
8595;DHT22;4335;48.860;9.198;2022-12-18T07:02:40;-7.90;99.90
8595;DHT22;4335;48.860;9.198;2022-12-18T07:05:10;-7.90;99.90
8595;DHT22;4335;48.860;9.198;2022-12-18T07:07:38;-7.90;99.90
8595;DHT22;4335;48.860;9.198;2022-12-18T07:10:06;-8.00;99.90
8595;DHT22;4335;48.860;9.198;2022-12-18T07:12:33;-8.00;99.90
8595;DHT22;4335;48.860;9.198;2022-12-18T07:15:01;-8.00;99.90
8595;DHT22;4335;48.860;9.198;2022-12-18T07:17:33;-8.00;99.90
8595;DHT22;4335;48.860;9.198;2022-12-18T07:20:04;-8.00;99.90
8595;DHT22;4335;48.860;9.198;2022-12-18T07:22:34;-8.00;99.90
8595;DHT22;4335;48.860;9.198;2022-12-18T07:25:02;-8.10;99.90
8595;DHT22;4335;48.860;9.198;2022-12-18T07:27:33;-8.00;99.90
8595;DHT22;4335;48.860;9.198;2022-12-18T07:30:00;-8.10;99.90
8595;DHT22;4335;48.860;9.198;2022-12-18T07:32:28;-8.00;99.90
8595;DHT22;4335;48.860;9.198;2022-12-18T07:34:56;-8.00;99.90
8595;DHT22;4335;48.860;9.198;2022-12-18T07:37:24;-7.90;99.90
8595;DHT22;4335;48.860;9.198;2022-12-18T07:39:54;-7.90;99.90
8595;DHT22;4335;48.860;9.198;2022-12-18T07:42:28;-7.90;99.90
8595;DHT22;4335;48.860;9.198;2022-12-18T07:44:58;-7.80;99.90
8595;DHT22;4335;48.860;9.198;2022-12-18T07:47:29;-7.70;99.90
8595;DHT22;4335;48.860;9.198;2022-12-18T07:50:05;-7.70;99.90
8595;DHT22;4335;48.860;9.198;2022-12-18T07:52:33;-7.60;99.90
8595;DHT22;4335;48.860;9.198;2022-12-18T07:55:00;-7.60;99.90
8595;DHT22;4335;48.860;9.198;2022-12-18T07:57:31;-7.50;99.90
8595;DHT22;4335;48.860;9.198;2022-12-18T08:00:05;-7.50;99.90
8595;DHT22;4335;48.860;9.198;2022-12-18T08:02:33;-7.40;99.90
8595;DHT22;4335;48.860;9.198;2022-12-18T08:05:01;-7.40;99.90
8595;DHT22;4335;48.860;9.198;2022-12-18T08:07:33;-7.40;99.90
8595;DHT22;4335;48.860;9.198;2022-12-18T08:10:03;-7.40;99.90
8595;DHT22;4335;48.860;9.198;2022-12-18T08:12:31;-7.30;99.90
8595;DHT22;4335;48.860;9.198;2022-12-18T08:14:58;-7.30;99.90
8595;DHT22;4335;48.860;9.198;2022-12-18T08:17:28;-7.30;99.90
8595;DHT22;4335;48.860;9.198;2022-12-18T08:19:55;-7.30;99.90
8595;DHT22;4335;48.860;9.198;2022-12-18T08:22:30;-7.20;99.90
8595;DHT22;4335;48.860;9.198;2022-12-18T08:24:58;-7.20;99.90
8595;DHT22;4335;48.860;9.198;2022-12-18T08:27:25;-7.00;99.90
8595;DHT22;4335;48.860;9.198;2022-12-18T08:29:53;-7.10;99.90
8595;DHT22;4335;48.860;9.198;2022-12-18T08:32:21;-7.00;99.90
8595;DHT22;4335;48.860;9.198;2022-12-18T08:34:56;-7.00;99.90
8595;DHT22;4335;48.860;9.198;2022-12-18T08:37:23;-6.90;99.90
8595;DHT22;4335;48.860;9.198;2022-12-18T08:39:52;-6.90;99.90
8595;DHT22;4335;48.860;9.198;2022-12-18T08:42:29;-6.80;99.90
8595;DHT22;4335;48.860;9.198;2022-12-18T08:45:17;-6.80;99.90
8595;DHT22;4335;48.860;9.198;2022-12-18T08:47:44;-6.80;99.90
8595;DHT22;4335;48.860;9.198;2022-12-18T08:50:12;-6.70;99.90
8595;DHT22;4335;48.860;9.198;2022-12-18T08:52:39;-6.70;99.90
8595;DHT22;4335;48.860;9.198;2022-12-18T08:55:09;-6.70;99.90
8595;DHT22;4335;48.860;9.198;2022-12-18T08:57:42;-6.60;99.90
8595;DHT22;4335;48.860;9.198;2022-12-18T09:00:13;-6.50;99.90
8595;DHT22;4335;48.860;9.198;2022-12-18T09:02:41;-6.50;99.90
8595;DHT22;4335;48.860;9.198;2022-12-18T09:05:09;-6.50;99.90
8595;DHT22;4335;48.860;9.198;2022-12-18T09:07:36;-6.50;99.90
8595;DHT22;4335;48.860;9.198;2022-12-18T09:10:05;-6.40;99.90
8595;DHT22;4335;48.860;9.198;2022-12-18T09:12:34;-6.30;99.90
8595;DHT22;4335;48.860;9.198;2022-12-18T09:15:02;-6.30;99.90
8595;DHT22;4335;48.860;9.198;2022-12-18T09:17:30;-6.30;99.90
8595;DHT22;4335;48.860;9.198;2022-12-18T09:19:58;-6.20;99.90
8595;DHT22;4335;48.860;9.198;2022-12-18T09:22:25;-6.10;99.90
8595;DHT22;4335;48.860;9.198;2022-12-18T09:24:53;-6.10;99.90
8595;DHT22;4335;48.860;9.198;2022-12-18T09:27:21;-6.00;99.90
8595;DHT22;4335;48.860;9.198;2022-12-18T09:29:50;-6.00;99.90
8595;DHT22;4335;48.860;9.198;2022-12-18T09:32:17;-5.90;99.90
8595;DHT22;4335;48.860;9.198;2022-12-18T09:34:45;-5.90;99.90
8595;DHT22;4335;48.860;9.198;2022-12-18T09:37:13;-5.80;99.90
8595;DHT22;4335;48.860;9.198;2022-12-18T09:39:40;-5.70;99.90
8595;DHT22;4335;48.860;9.198;2022-12-18T09:42:14;-5.70;99.90
8595;DHT22;4335;48.860;9.198;2022-12-18T09:44:51;-5.70;99.90
8595;DHT22;4335;48.860;9.198;2022-12-18T09:47:23;-5.60;99.90
8595;DHT22;4335;48.860;9.198;2022-12-18T09:49:56;-5.60;99.90
8595;DHT22;4335;48.860;9.198;2022-12-18T09:52:32;-5.60;99.90
8595;DHT22;4335;48.860;9.198;2022-12-18T09:55:03;-5.50;99.90
8595;DHT22;4335;48.860;9.198;2022-12-18T09:57:39;-5.40;99.90
8595;DHT22;4335;48.860;9.198;2022-12-18T10:00:16;-5.40;99.90
8595;DHT22;4335;48.860;9.198;2022-12-18T10:02:46;-5.30;99.90
8595;DHT22;4335;48.860;9.198;2022-12-18T10:05:16;-5.30;99.90
8595;DHT22;4335;48.860;9.198;2022-12-18T10:07:58;-5.30;99.90
8595;DHT22;4335;48.860;9.198;2022-12-18T10:10:35;-5.20;99.90
8595;DHT22;4335;48.860;9.198;2022-12-18T10:13:18;-5.20;99.90
8595;DHT22;4335;48.860;9.198;2022-12-18T10:16:06;-5.10;99.90
8595;DHT22;4335;48.860;9.198;2022-12-18T10:18:44;-4.90;99.90
8595;DHT22;4335;48.860;9.198;2022-12-18T10:21:17;-4.80;99.90
8595;DHT22;4335;48.860;9.198;2022-12-18T10:23:51;-4.80;99.90
8595;DHT22;4335;48.860;9.198;2022-12-18T10:26:20;-4.70;99.90
8595;DHT22;4335;48.860;9.198;2022-12-18T10:28:51;-4.70;99.90
8595;DHT22;4335;48.860;9.198;2022-12-18T10:31:23;-4.60;99.90
8595;DHT22;4335;48.860;9.198;2022-12-18T10:33:51;-4.50;99.90
8595;DHT22;4335;48.860;9.198;2022-12-18T10:36:22;-4.40;99.90
8595;DHT22;4335;48.860;9.198;2022-12-18T10:38:52;-4.30;99.90
8595;DHT22;4335;48.860;9.198;2022-12-18T10:41:26;-4.30;99.90
8595;DHT22;4335;48.860;9.198;2022-12-18T10:44:17;-4.20;99.90
8595;DHT22;4335;48.860;9.198;2022-12-18T10:46:47;-4.10;99.90
8595;DHT22;4335;48.860;9.198;2022-12-18T10:49:22;-4.10;99.90
8595;DHT22;4335;48.860;9.198;2022-12-18T10:51:51;-4.00;99.90
8595;DHT22;4335;48.860;9.198;2022-12-18T10:54:21;-4.00;99.90
8595;DHT22;4335;48.860;9.198;2022-12-18T10:56:49;-3.90;99.90
8595;DHT22;4335;48.860;9.198;2022-12-18T10:59:18;-3.80;99.90
8595;DHT22;4335;48.860;9.198;2022-12-18T11:01:49;-3.70;99.90
8595;DHT22;4335;48.860;9.198;2022-12-18T11:04:20;-3.60;99.90
8595;DHT22;4335;48.860;9.198;2022-12-18T11:06:58;-3.50;99.90
8595;DHT22;4335;48.860;9.198;2022-12-18T11:09:27;-3.40;99.90
8595;DHT22;4335;48.860;9.198;2022-12-18T11:11:57;-3.30;99.90
8595;DHT22;4335;48.860;9.198;2022-12-18T11:14:27;-3.30;99.90
8595;DHT22;4335;48.860;9.198;2022-12-18T11:16:59;-3.20;99.90
8595;DHT22;4335;48.860;9.198;2022-12-18T11:19:33;-3.10;99.90
8595;DHT22;4335;48.860;9.198;2022-12-18T11:22:03;-3.00;99.90
8595;DHT22;4335;48.860;9.198;2022-12-18T11:24:54;-2.90;99.90
8595;DHT22;4335;48.860;9.198;2022-12-18T11:27:22;-2.80;99.90
8595;DHT22;4335;48.860;9.198;2022-12-18T11:29:51;-2.80;99.90
8595;DHT22;4335;48.860;9.198;2022-12-18T11:32:27;-2.80;99.90
8595;DHT22;4335;48.860;9.198;2022-12-18T11:35:02;-2.70;99.90
8595;DHT22;4335;48.860;9.198;2022-12-18T11:37:31;-2.60;99.90
8595;DHT22;4335;48.860;9.198;2022-12-18T11:40:03;-2.50;99.90
8595;DHT22;4335;48.860;9.198;2022-12-18T11:42:38;-2.50;99.90
8595;DHT22;4335;48.860;9.198;2022-12-18T11:45:24;-2.40;99.90
8595;DHT22;4335;48.860;9.198;2022-12-18T11:48:01;-2.40;99.90
8595;DHT22;4335;48.860;9.198;2022-12-18T11:50:39;-2.30;99.90
8595;DHT22;4335;48.860;9.198;2022-12-18T11:53:17;-2.30;99.90
8595;DHT22;4335;48.860;9.198;2022-12-18T11:55:53;-2.20;99.90
8595;DHT22;4335;48.860;9.198;2022-12-18T12:01:21;-2.10;99.90
8595;DHT22;4335;48.860;9.198;2022-12-18T12:04:15;-2.00;99.90
8595;DHT22;4335;48.860;9.198;2022-12-18T12:06:55;-2.00;99.90
8595;DHT22;4335;48.860;9.198;2022-12-18T12:09:31;-1.90;99.90
8595;DHT22;4335;48.860;9.198;2022-12-18T12:12:14;-1.90;99.90
8595;DHT22;4335;48.860;9.198;2022-12-18T12:14:54;-1.80;99.90
8595;DHT22;4335;48.860;9.198;2022-12-18T12:17:37;-1.80;99.90
8595;DHT22;4335;48.860;9.198;2022-12-18T12:20:17;-1.80;99.90
8595;DHT22;4335;48.860;9.198;2022-12-18T12:22:52;-1.70;99.90
8595;DHT22;4335;48.860;9.198;2022-12-18T12:25:31;-1.70;99.90
8595;DHT22;4335;48.860;9.198;2022-12-18T12:28:10;-1.70;99.90
8595;DHT22;4335;48.860;9.198;2022-12-18T12:30:54;-1.60;99.90
8595;DHT22;4335;48.860;9.198;2022-12-18T12:33:33;-1.60;99.90
8595;DHT22;4335;48.860;9.198;2022-12-18T12:36:08;-1.50;99.90
8595;DHT22;4335;48.860;9.198;2022-12-18T12:38:43;-1.50;99.90
8595;DHT22;4335;48.860;9.198;2022-12-18T12:41:14;-1.40;99.90
8595;DHT22;4335;48.860;9.198;2022-12-18T12:44:00;-1.40;99.90
8595;DHT22;4335;48.860;9.198;2022-12-18T12:46:30;-1.40;99.90
8595;DHT22;4335;48.860;9.198;2022-12-18T12:49:02;-1.40;99.90
8595;DHT22;4335;48.860;9.198;2022-12-18T12:51:34;-1.40;99.90
8595;DHT22;4335;48.860;9.198;2022-12-18T12:54:05;-1.30;99.90
8595;DHT22;4335;48.860;9.198;2022-12-18T12:56:46;-1.30;99.90
8595;DHT22;4335;48.860;9.198;2022-12-18T12:59:19;-1.30;99.90
8595;DHT22;4335;48.860;9.198;2022-12-18T13:01:54;-1.20;99.90
8595;DHT22;4335;48.860;9.198;2022-12-18T13:04:32;-1.20;99.90
8595;DHT22;4335;48.860;9.198;2022-12-18T13:07:10;-1.20;99.90
8595;DHT22;4335;48.860;9.198;2022-12-18T13:10:13;-1.20;99.90
8595;DHT22;4335;48.860;9.198;2022-12-18T13:12:52;-1.20;99.90
8595;DHT22;4335;48.860;9.198;2022-12-18T13:15:24;-1.10;99.90
8595;DHT22;4335;48.860;9.198;2022-12-18T13:18:20;-1.10;99.90
8595;DHT22;4335;48.860;9.198;2022-12-18T13:20:50;-1.00;99.90
8595;DHT22;4335;48.860;9.198;2022-12-18T13:23:29;-1.00;99.90
8595;DHT22;4335;48.860;9.198;2022-12-18T13:25:58;-1.00;99.90
8595;DHT22;4335;48.860;9.198;2022-12-18T13:28:51;-1.00;99.90
8595;DHT22;4335;48.860;9.198;2022-12-18T13:34:34;-1.00;99.90
8595;DHT22;4335;48.860;9.198;2022-12-18T13:37:42;-0.90;99.90
8595;DHT22;4335;48.860;9.198;2022-12-18T13:43:31;-0.80;99.90
8595;DHT22;4335;48.860;9.198;2022-12-18T13:46:05;-0.70;99.90
8595;DHT22;4335;48.860;9.198;2022-12-18T13:48:34;-0.70;99.90
8595;DHT22;4335;48.860;9.198;2022-12-18T13:51:06;-0.70;99.90
8595;DHT22;4335;48.860;9.198;2022-12-18T13:53:42;-0.70;99.90
8595;DHT22;4335;48.860;9.198;2022-12-18T13:56:23;-0.70;99.90
8595;DHT22;4335;48.860;9.198;2022-12-18T13:59:15;-0.70;99.90
8595;DHT22;4335;48.860;9.198;2022-12-18T14:01:45;-0.70;99.90
8595;DHT22;4335;48.860;9.198;2022-12-18T14:04:22;-0.70;99.90
8595;DHT22;4335;48.860;9.198;2022-12-18T14:07:00;-0.70;99.90
8595;DHT22;4335;48.860;9.198;2022-12-18T14:09:34;-0.70;99.90
8595;DHT22;4335;48.860;9.198;2022-12-18T14:12:06;-0.80;99.90
8595;DHT22;4335;48.860;9.198;2022-12-18T14:14:55;-0.80;99.90
8595;DHT22;4335;48.860;9.198;2022-12-18T14:17:23;-0.80;99.90
8595;DHT22;4335;48.860;9.198;2022-12-18T14:19:53;-0.80;99.90
8595;DHT22;4335;48.860;9.198;2022-12-18T14:22:22;-0.90;99.90
8595;DHT22;4335;48.860;9.198;2022-12-18T14:25:14;-1.00;99.90
8595;DHT22;4335;48.860;9.198;2022-12-18T14:27:43;-1.00;99.90
8595;DHT22;4335;48.860;9.198;2022-12-18T14:30:32;-1.10;99.90
8595;DHT22;4335;48.860;9.198;2022-12-18T14:33:01;-1.20;99.90
8595;DHT22;4335;48.860;9.198;2022-12-18T14:35:34;-1.30;99.90
8595;DHT22;4335;48.860;9.198;2022-12-18T14:38:28;-1.30;99.90
8595;DHT22;4335;48.860;9.198;2022-12-18T14:41:00;-1.20;99.90
8595;DHT22;4335;48.860;9.198;2022-12-18T14:43:29;-1.10;99.90
8595;DHT22;4335;48.860;9.198;2022-12-18T14:45:59;-1.00;99.90
8595;DHT22;4335;48.860;9.198;2022-12-18T14:48:35;-0.90;99.90
8595;DHT22;4335;48.860;9.198;2022-12-18T14:51:15;-1.00;99.90
8595;DHT22;4335;48.860;9.198;2022-12-18T14:53:45;-1.10;99.90
8595;DHT22;4335;48.860;9.198;2022-12-18T14:56:15;-1.30;99.90
8595;DHT22;4335;48.860;9.198;2022-12-18T14:58:54;-1.30;99.90
8595;DHT22;4335;48.860;9.198;2022-12-18T15:01:30;-1.40;99.90
8595;DHT22;4335;48.860;9.198;2022-12-18T15:03:59;-1.60;99.90
8595;DHT22;4335;48.860;9.198;2022-12-18T15:06:33;-1.70;99.90
8595;DHT22;4335;48.860;9.198;2022-12-18T15:09:03;-1.80;99.90
8595;DHT22;4335;48.860;9.198;2022-12-18T15:11:45;-1.90;99.90
8595;DHT22;4335;48.860;9.198;2022-12-18T15:14:33;-2.00;99.90
8595;DHT22;4335;48.860;9.198;2022-12-18T15:17:06;-2.10;99.90
8595;DHT22;4335;48.860;9.198;2022-12-18T15:19:44;-2.10;99.90
8595;DHT22;4335;48.860;9.198;2022-12-18T15:22:20;-2.20;99.90
8595;DHT22;4335;48.860;9.198;2022-12-18T15:24:47;-2.20;99.90
8595;DHT22;4335;48.860;9.198;2022-12-18T15:27:23;-2.20;99.90
8595;DHT22;4335;48.860;9.198;2022-12-18T15:30:20;-2.30;99.90
8595;DHT22;4335;48.860;9.198;2022-12-18T15:32:50;-2.30;99.90
8595;DHT22;4335;48.860;9.198;2022-12-18T15:35:20;-2.40;99.90
8595;DHT22;4335;48.860;9.198;2022-12-18T15:37:48;-2.40;99.90
8595;DHT22;4335;48.860;9.198;2022-12-18T15:40:20;-2.50;99.90
8595;DHT22;4335;48.860;9.198;2022-12-18T15:42:48;-2.50;99.90
8595;DHT22;4335;48.860;9.198;2022-12-18T15:45:41;-2.50;99.90
8595;DHT22;4335;48.860;9.198;2022-12-18T15:48:18;-2.60;99.90
8595;DHT22;4335;48.860;9.198;2022-12-18T15:50:47;-2.60;99.90
8595;DHT22;4335;48.860;9.198;2022-12-18T15:53:14;-2.60;99.90
8595;DHT22;4335;48.860;9.198;2022-12-18T15:55:42;-2.60;99.90
8595;DHT22;4335;48.860;9.198;2022-12-18T15:58:27;-2.60;99.90
8595;DHT22;4335;48.860;9.198;2022-12-18T16:00:57;-2.70;99.90
8595;DHT22;4335;48.860;9.198;2022-12-18T16:03:29;-2.70;99.90
8595;DHT22;4335;48.860;9.198;2022-12-18T16:06:03;-2.70;99.90
8595;DHT22;4335;48.860;9.198;2022-12-18T16:08:30;-2.70;99.90
8595;DHT22;4335;48.860;9.198;2022-12-18T16:11:01;-2.70;99.90
8595;DHT22;4335;48.860;9.198;2022-12-18T16:13:31;-2.70;99.90
8595;DHT22;4335;48.860;9.198;2022-12-18T16:15:59;-2.80;99.90
8595;DHT22;4335;48.860;9.198;2022-12-18T16:18:33;-2.80;99.90
8595;DHT22;4335;48.860;9.198;2022-12-18T16:21:04;-2.80;99.90
8595;DHT22;4335;48.860;9.198;2022-12-18T16:23:31;-2.80;99.90
8595;DHT22;4335;48.860;9.198;2022-12-18T16:25:58;-2.80;99.90
8595;DHT22;4335;48.860;9.198;2022-12-18T16:28:32;-2.80;99.90
8595;DHT22;4335;48.860;9.198;2022-12-18T16:30:59;-2.80;99.90
8595;DHT22;4335;48.860;9.198;2022-12-18T16:33:26;-2.80;99.90
8595;DHT22;4335;48.860;9.198;2022-12-18T16:35:55;-2.80;99.90
8595;DHT22;4335;48.860;9.198;2022-12-18T16:38:26;-2.80;99.90
8595;DHT22;4335;48.860;9.198;2022-12-18T16:40:53;-2.80;99.90
8595;DHT22;4335;48.860;9.198;2022-12-18T16:43:38;-2.80;99.90
8595;DHT22;4335;48.860;9.198;2022-12-18T16:46:08;-2.80;99.90